createdAt,value
2022-08-29T00:03:20.624Z,62
2022-08-29T00:09:01.257Z,56
2022-08-29T00:14:41.280Z,48
2022-08-29T00:20:34.962Z,54
2022-08-29T00:26:17.550Z,58
2022-08-29T00:31:58.413Z,44
2022-08-29T00:37:40.748Z,56
2022-08-29T00:43:20.946Z,46
2022-08-29T00:49:01.335Z,54
2022-08-29T00:54:41.522Z,48
2022-08-29T01:00:21.941Z,50
2022-08-29T01:06:02.105Z,46
2022-08-29T01:11:42.291Z,48
2022-08-29T01:17:22.769Z,52
2022-08-29T01:23:03.001Z,50
2022-08-29T01:28:43.402Z,46
2022-08-29T01:34:24.088Z,54
2022-08-29T01:40:06.708Z,56
2022-08-29T01:45:47.963Z,46
2022-08-29T01:51:28.580Z,42
2022-08-29T01:57:13.586Z,56
2022-08-29T02:02:54.097Z,54
2022-08-29T02:08:34.702Z,54
2022-08-29T02:14:20.189Z,50
2022-08-29T02:20:00.409Z,56
2022-08-29T02:25:40.567Z,36
2022-08-29T02:31:21.266Z,44
2022-08-29T02:37:01.923Z,46
2022-08-29T02:42:42.068Z,54
2022-08-29T02:48:22.195Z,44
2022-08-29T02:54:02.502Z,44
2022-08-29T02:59:42.915Z,50
2022-08-29T03:05:23.016Z,46
2022-08-29T03:11:03.027Z,52
2022-08-29T03:16:43.253Z,52
2022-08-29T03:22:23.327Z,54
2022-08-29T03:28:03.485Z,48
2022-08-29T03:33:43.653Z,56
2022-08-29T03:39:24.074Z,52
2022-08-29T03:45:04.623Z,40
2022-08-29T03:50:44.966Z,46
2022-08-29T03:56:25.227Z,56
2022-08-29T04:02:05.945Z,46
2022-08-29T04:07:46.534Z,44
2022-08-29T04:13:26.813Z,54
2022-08-29T04:19:09.260Z,52
2022-08-29T04:24:49.263Z,56
2022-08-29T04:30:29.578Z,46
2022-08-29T04:36:15.453Z,52
2022-08-29T04:41:56.884Z,50
2022-08-29T04:47:36.961Z,52
2022-08-29T04:53:17.918Z,40
2022-08-29T04:58:59.065Z,54
2022-08-29T05:04:39.418Z,48
2022-08-29T05:10:19.769Z,56
2022-08-29T05:16:01.901Z,48
2022-08-29T05:21:42.604Z,54
2022-08-29T05:27:23.501Z,56
2022-08-29T05:33:04.031Z,46
2022-08-29T05:38:44.293Z,44
2022-08-29T05:44:25.069Z,54
2022-08-29T05:50:06.293Z,56
2022-08-29T05:55:48.086Z,40
2022-08-29T06:01:33.095Z,44
2022-08-29T06:07:13.350Z,48
2022-08-29T06:12:53.831Z,52
2022-08-29T06:18:36.533Z,48
2022-08-29T06:24:20.099Z,48
2022-08-29T06:30:02.569Z,44
2022-08-29T06:35:43.599Z,54
2022-08-29T06:41:24.304Z,44
2022-08-29T06:47:04.966Z,46
2022-08-29T06:52:47.671Z,50
2022-08-29T06:58:32.208Z,60
2022-08-29T07:09:52.655Z,58
2022-08-29T07:15:33.594Z,48
2022-08-29T07:21:21.405Z,58
2022-08-29T07:27:01.826Z,48
2022-08-29T07:32:42.463Z,48
2022-08-29T07:38:25.166Z,56
2022-08-29T07:44:06.706Z,22
2022-08-29T07:49:47.118Z,0
2022-08-29T07:55:29.391Z,10
2022-08-29T08:01:22.447Z,8
2022-08-29T08:07:14.145Z,20
2022-08-29T08:12:56.907Z,4
2022-08-29T08:18:37.947Z,14
2022-08-29T08:24:20.519Z,20
2022-08-29T08:30:01.120Z,14
2022-08-29T08:35:54.069Z,10
2022-08-29T08:41:40.556Z,12
2022-08-29T08:47:20.670Z,10
2022-08-29T08:53:03.408Z,4
2022-08-29T08:58:43.948Z,0
2022-08-29T09:04:27.529Z,2
2022-08-29T09:10:07.694Z,2
2022-08-29T09:15:47.919Z,4
2022-08-29T09:21:42.966Z,0
2022-08-29T09:27:24.347Z,16
2022-08-29T09:33:06.768Z,12
2022-08-29T09:38:49.954Z,0
2022-08-29T09:44:31.354Z,0
2022-08-29T09:50:12.273Z,0
2022-08-29T09:55:53.005Z,0
2022-08-29T10:01:44.150Z,0
2022-08-29T10:07:25.021Z,0
2022-08-29T10:13:05.464Z,0
2022-08-29T10:18:52.437Z,0
2022-08-29T10:24:36.278Z,0
2022-08-29T10:30:16.909Z,0
2022-08-29T10:36:00.955Z,0
2022-08-29T10:41:50.558Z,0
2022-08-29T10:47:34.538Z,0
2022-08-29T10:53:14.774Z,0
2022-08-29T10:58:55.052Z,0
2022-08-29T11:04:35.020Z,4
2022-08-29T11:10:15.510Z,0
2022-08-29T11:15:57.645Z,0
2022-08-29T11:21:40.034Z,0
2022-08-29T11:27:20.649Z,0
2022-08-29T11:33:01.696Z,0
2022-08-29T11:38:42.341Z,2
2022-08-29T11:44:25.342Z,0
2022-08-29T11:50:08.798Z,0
2022-08-29T12:01:34.398Z,2
2022-08-29T12:07:16.385Z,0
2022-08-29T12:12:57.348Z,0
2022-08-29T12:18:37.907Z,0
2022-08-29T12:24:18.234Z,60
2022-08-29T12:29:58.181Z,2
2022-08-29T12:35:38.451Z,0
2022-08-29T12:41:19.283Z,0
2022-08-29T12:47:00.934Z,0
2022-08-29T12:52:44.890Z,0
2022-08-29T12:58:25.007Z,10
2022-08-29T13:04:05.313Z,4
2022-08-29T13:09:45.461Z,28
2022-08-29T13:15:34.664Z,18
2022-08-29T13:21:32.188Z,10
2022-08-29T13:33:36.496Z,4
2022-08-29T13:39:18.892Z,0
2022-08-29T13:44:59.159Z,2
2022-08-29T13:50:50.224Z,0
2022-08-29T13:56:46.347Z,0
2022-08-29T14:02:30.974Z,0
2022-08-29T14:08:15.592Z,0
2022-08-29T14:14:11.086Z,8
2022-08-29T14:19:55.427Z,4
2022-08-29T14:25:39.046Z,8
2022-08-29T14:31:22.934Z,10
2022-08-29T14:37:06.009Z,10
2022-08-29T14:42:58.241Z,14
2022-08-29T14:48:39.344Z,20
2022-08-29T14:54:23.364Z,56
2022-08-29T15:00:03.906Z,54
2022-08-29T15:05:53.728Z,62
2022-08-29T15:11:48.673Z,54
2022-08-29T15:17:36.494Z,54
2022-08-29T15:23:25.267Z,48
2022-08-29T15:29:06.261Z,58
2022-08-29T15:34:46.459Z,52
2022-08-29T15:40:26.997Z,58
2022-08-29T15:46:08.512Z,46
2022-08-29T15:51:49.455Z,60
2022-08-29T15:57:33.221Z,60
2022-08-29T16:03:33.691Z,56
2022-08-29T16:09:18.167Z,50
2022-08-29T16:15:10.389Z,62
2022-08-29T16:21:02.279Z,54
2022-08-29T16:26:46.290Z,54
2022-08-29T16:32:26.626Z,48
2022-08-29T16:38:06.956Z,58
2022-08-29T16:43:47.249Z,52
2022-08-29T16:49:27.416Z,62
2022-08-29T16:55:07.813Z,54
2022-08-29T17:00:47.931Z,52
2022-08-29T17:06:27.848Z,52
2022-08-29T17:12:10.140Z,66
2022-08-29T17:17:50.344Z,48
2022-08-29T17:23:31.124Z,58
2022-08-29T17:29:11.453Z,56
2022-08-29T17:34:51.595Z,44
2022-08-29T17:40:42.522Z,94
2022-08-29T17:46:24.500Z,54
2022-08-29T17:52:04.943Z,50
2022-08-29T17:57:56.416Z,48
2022-08-29T18:03:39.447Z,54
2022-08-29T18:09:27.579Z,58
2022-08-29T18:15:30.783Z,44
2022-08-29T18:21:19.905Z,52
2022-08-29T18:27:16.756Z,58
2022-08-29T18:33:04.551Z,66
2022-08-29T18:39:00.187Z,52
2022-08-29T18:45:12.134Z,56
2022-08-29T18:50:58.228Z,52
2022-08-29T18:56:41.409Z,44
2022-08-29T19:02:29.354Z,58
2022-08-29T19:13:19.582Z,46
2022-08-29T19:18:59.930Z,48
2022-08-29T19:24:40.058Z,52
2022-08-29T19:30:20.641Z,58
2022-08-29T19:36:01.110Z,48
2022-08-29T19:41:42.272Z,56
2022-08-29T19:47:28.104Z,52
2022-08-29T19:53:10.613Z,56
2022-08-29T19:58:50.967Z,54
2022-08-29T20:04:34.783Z,56
2022-08-29T20:10:16.459Z,50
2022-08-29T20:16:02.960Z,56
2022-08-29T20:21:43.904Z,48
2022-08-29T20:27:24.026Z,52
2022-08-29T20:33:04.326Z,58
2022-08-29T20:38:44.648Z,52
2022-08-29T20:44:25.163Z,58
2022-08-29T20:50:09.155Z,56
2022-08-29T20:55:49.236Z,52
2022-08-29T21:01:29.436Z,56
2022-08-29T21:07:10.450Z,52
2022-08-29T21:12:50.565Z,56
2022-08-29T21:18:33.908Z,44
2022-08-29T21:24:14.754Z,52
2022-08-29T21:29:54.840Z,58
2022-08-29T21:35:35.001Z,48
2022-08-29T21:41:15.300Z,48
2022-08-29T21:46:58.777Z,56
2022-08-29T21:52:39.810Z,52
2022-08-29T21:58:20.014Z,40
2022-08-29T22:04:01.489Z,46
2022-08-29T22:09:41.726Z,48
2022-08-29T22:15:25.168Z,56
2022-08-29T22:21:05.548Z,56
2022-08-29T22:26:46.091Z,60
2022-08-29T22:32:36.368Z,48
2022-08-29T22:38:17.355Z,52
2022-08-29T22:45:04.711Z,54
2022-08-29T22:56:25.260Z,56
2022-08-29T23:02:05.906Z,46
2022-08-29T23:07:46.156Z,44
2022-08-29T23:13:31.762Z,52
2022-08-29T23:19:12.227Z,46
2022-08-29T23:24:59.358Z,48
2022-08-29T23:30:39.607Z,62
2022-08-29T23:36:20.079Z,46
2022-08-29T23:42:00.550Z,54
2022-08-29T23:47:40.639Z,52
2022-08-29T23:53:20.833Z,58
2022-08-29T23:59:00.900Z,48
